createdAt,value
2023-03-19T13:42:46.347Z,18.97
2023-03-19T13:47:52.165Z,19.85
2023-03-19T13:53:14.901Z,20.43
2023-03-19T13:58:38.979Z,20.96
2023-03-19T14:03:45.573Z,21.30
2023-03-19T14:08:51.901Z,21.39
2023-03-19T14:13:59.523Z,21.04
2023-03-19T14:19:06.220Z,20.76
2023-03-19T14:24:55.695Z,20.74
2023-03-19T14:30:06.126Z,20.42
2023-03-19T14:35:14.075Z,20.08
2023-03-19T14:40:20.749Z,19.80
2023-03-19T14:45:45.117Z,19.48
2023-03-19T14:51:33.668Z,19.20
2023-03-19T14:56:39.190Z,19.02
2023-03-19T15:01:51.228Z,18.91
2023-03-19T15:06:58.984Z,18.84
2023-03-19T15:12:43.534Z,18.82
2023-03-19T15:18:04.712Z,18.87
2023-03-19T15:23:25.861Z,18.97
2023-03-19T15:28:34.489Z,19.11
2023-03-19T15:33:46.318Z,19.05
2023-03-19T15:38:54.928Z,18.87
2023-03-19T15:44:00.138Z,18.70
2023-03-19T15:49:11.328Z,18.63
2023-03-19T15:54:16.449Z,18.49
2023-03-19T15:59:24.450Z,18.27
2023-03-19T16:04:38.426Z,17.72
2023-03-19T16:09:50.876Z,17.02
2023-03-19T16:14:56.205Z,16.57
2023-03-19T16:20:08.361Z,16.33
2023-03-19T16:25:17.691Z,16.30
2023-03-19T16:30:24.071Z,16.34
2023-03-19T16:35:32.807Z,16.29
2023-03-19T16:40:48.137Z,16.23
2023-03-19T16:45:54.344Z,16.15
2023-03-19T16:51:02.022Z,16.13
2023-03-19T16:56:08.531Z,15.97
2023-03-19T17:01:19.451Z,15.88
2023-03-19T17:06:29.478Z,15.72
2023-03-19T17:11:38.133Z,15.56
2023-03-19T17:16:48.484Z,15.38
2023-03-19T17:21:58.358Z,15.19
2023-03-19T17:27:04.976Z,15.02
2023-03-19T17:32:13.557Z,14.87
2023-03-19T17:37:21.374Z,14.78
2023-03-19T17:42:27.468Z,14.84
2023-03-19T17:47:34.386Z,14.95
2023-03-19T17:52:44.013Z,15.09
2023-03-19T17:57:51.268Z,15.14
2023-03-19T18:02:56.960Z,15.17
2023-03-19T18:08:04.733Z,15.23
2023-03-19T18:13:09.858Z,15.21
2023-03-19T18:18:19.642Z,15.18
2023-03-19T18:23:27.595Z,15.08
2023-03-19T18:28:32.726Z,14.97
2023-03-19T18:33:37.826Z,14.90
2023-03-19T18:38:45.584Z,14.87
2023-03-19T18:43:51.010Z,14.85
2023-03-19T18:48:56.168Z,14.85
2023-03-19T18:54:03.923Z,14.86
2023-03-19T18:59:16.390Z,14.88
2023-03-19T19:04:21.505Z,14.86
2023-03-19T19:09:29.445Z,14.84
2023-03-19T19:14:34.767Z,14.76
2023-03-19T19:19:42.512Z,14.70
2023-03-19T19:24:50.740Z,14.65
2023-03-19T19:29:55.894Z,14.59
2023-03-19T19:35:06.937Z,14.61
2023-03-19T19:40:27.012Z,14.63
2023-03-19T19:45:36.486Z,14.61
2023-03-19T19:50:41.574Z,14.62
2023-03-19T19:55:49.304Z,14.63
2023-03-19T20:01:03.498Z,14.58
2023-03-19T20:06:10.098Z,14.57
2023-03-19T20:11:21.451Z,14.59
2023-03-19T20:16:28.301Z,14.59
2023-03-19T20:21:33.397Z,14.63
2023-03-19T20:26:41.084Z,14.68
2023-03-19T20:31:47.021Z,14.71
2023-03-19T20:36:52.980Z,14.71
2023-03-19T20:42:00.740Z,14.73
2023-03-19T20:47:06.363Z,14.74
2023-03-19T20:52:12.074Z,14.75
2023-03-19T20:57:22.606Z,14.79
2023-03-19T21:02:28.496Z,14.77
2023-03-19T21:07:34.982Z,14.77
2023-03-19T21:12:42.686Z,14.77
2023-03-19T21:17:47.924Z,14.74
2023-03-19T21:22:55.643Z,14.72
2023-03-19T21:28:04.485Z,14.70
2023-03-19T21:33:11.472Z,14.67
2023-03-19T21:38:16.629Z,14.65
2023-03-19T21:43:26.255Z,14.64
2023-03-19T21:48:33.123Z,14.60
2023-03-19T21:53:38.222Z,14.57
2023-03-19T21:58:46.844Z,14.55
2023-03-19T22:03:52.150Z,14.51
2023-03-19T22:08:57.617Z,14.48
2023-03-19T22:14:08.444Z,14.41
2023-03-19T22:19:16.269Z,14.32
2023-03-19T22:24:21.600Z,14.23
2023-03-19T22:29:29.335Z,14.16
2023-03-19T22:34:34.603Z,14.09
2023-03-19T22:39:41.771Z,14.06
2023-03-19T22:44:50.418Z,14.03
2023-03-19T22:49:55.778Z,13.98
2023-03-19T22:55:01.012Z,13.95
2023-03-19T23:00:14.295Z,13.91
2023-03-19T23:05:36.122Z,13.86
2023-03-19T23:10:43.346Z,13.75
2023-03-19T23:15:51.582Z,13.72
2023-03-19T23:20:56.815Z,13.67
2023-03-19T23:26:02.559Z,13.63
2023-03-19T23:31:13.588Z,13.62
2023-03-19T23:36:19.142Z,13.62
2023-03-19T23:41:26.602Z,13.57
2023-03-19T23:46:35.207Z,13.52
